Maracaibo, Venezuela
Current Conditions -  °F | °C
As of 6:00 PM on Monday 22 Dec 2014 (Local Time) from SKVP Reporting Station
Few Clouds Few Clouds  
Wind Chill: 91°   Ceiling: Unl
Heat Index: 91°   Visibility: 6mi
Dew Point: 32°   Wind: 7mph
Humidity: 12%   Direction: 50°NE
Pressure: 29.75"   Gusts: NA
Location:  10.73°N, 71.66°W
Report Text: SKVP 222200Z 05006KT 9999 FEW015 33/00 A2975
Loading
Personal Weather Stations






























Interactive Weather Map New forecast layout! Learn more

10-Day Weather Forecast

Advertisements
Track Severe Weather on mobile